createdAt,value
2022-09-13T00:01:03.924Z,71.12
2022-09-13T00:03:31.236Z,70.71
2022-09-13T00:05:58.055Z,70.36
2022-09-13T00:08:24.656Z,70.42
2022-09-13T00:10:51.084Z,70.84
2022-09-13T00:13:18.211Z,70.50
2022-09-13T00:15:48.179Z,70.54
2022-09-13T00:18:16.784Z,70.43
2022-09-13T00:20:43.336Z,70.64
2022-09-13T00:23:11.132Z,70.63
2022-09-13T00:25:38.055Z,70.41
2022-09-13T00:28:05.675Z,69.99
2022-09-13T00:30:32.842Z,70.00
2022-09-13T00:32:59.324Z,69.79
2022-09-13T00:35:25.802Z,70.45
2022-09-13T00:37:54.310Z,70.65
2022-09-13T00:40:21.743Z,70.41
2022-09-13T00:42:48.233Z,70.81
2022-09-13T00:45:18.323Z,70.48
2022-09-13T00:48:02.148Z,70.66
2022-09-13T00:50:37.663Z,70.73
2022-09-13T00:53:15.688Z,70.96
2022-09-13T00:56:02.983Z,71.26
2022-09-13T00:58:44.114Z,71.03
2022-09-13T01:01:17.073Z,70.87
2022-09-13T01:03:46.688Z,70.55
2022-09-13T01:06:20.045Z,70.48
2022-09-13T01:08:53.361Z,70.54
2022-09-13T01:11:29.616Z,70.89
2022-09-13T01:13:58.286Z,71.16
2022-09-13T01:16:26.350Z,71.71
2022-09-13T01:18:53.395Z,71.17
2022-09-13T01:22:01.980Z,70.93
2022-09-13T01:25:10.110Z,71.07
2022-09-13T01:27:57.757Z,72.20
2022-09-13T01:30:34.105Z,71.58
2022-09-13T01:33:22.578Z,71.67
2022-09-13T01:36:32.801Z,72.03
2022-09-13T01:39:05.146Z,72.11
2022-09-13T01:42:03.447Z,71.88
2022-09-13T01:45:01.262Z,71.53
2022-09-13T01:47:38.638Z,71.52
2022-09-13T01:50:19.926Z,70.98
2022-09-13T01:53:16.082Z,70.92
2022-09-13T01:55:50.891Z,70.58
2022-09-13T01:58:29.486Z,70.36
2022-09-13T02:01:18.316Z,70.40
2022-09-13T02:03:58.242Z,70.51
2022-09-13T02:06:37.671Z,70.85
2022-09-13T02:09:17.544Z,71.21
2022-09-13T02:11:54.663Z,71.32
2022-09-13T02:14:30.802Z,71.30
2022-09-13T02:17:18.239Z,71.00
2022-09-13T02:20:03.162Z,70.75
2022-09-13T02:22:37.490Z,70.98
2022-09-13T02:25:14.771Z,70.86
2022-09-13T02:27:46.760Z,70.96
2022-09-13T02:30:15.655Z,70.74
2022-09-13T02:32:51.713Z,70.46
2022-09-13T02:35:27.097Z,70.58
2022-09-13T02:38:15.241Z,70.66
2022-09-13T02:40:59.031Z,70.32
2022-09-13T02:43:39.642Z,70.12
2022-09-13T02:47:02.055Z,70.56
2022-09-13T02:49:43.419Z,70.71
2022-09-13T02:52:23.536Z,70.57
2022-09-13T02:54:58.314Z,70.40
2022-09-13T02:57:40.639Z,70.64
2022-09-13T03:00:08.514Z,70.70
2022-09-13T03:02:38.292Z,70.33
2022-09-13T03:05:05.433Z,70.01
2022-09-13T03:07:31.905Z,69.78
2022-09-13T03:10:05.818Z,69.40
2022-09-13T03:13:35.491Z,69.92
2022-09-13T03:16:57.141Z,70.54
2022-09-13T03:19:44.977Z,70.21
2022-09-13T03:25:18.442Z,69.75
2022-09-13T03:28:38.535Z,69.87
2022-09-13T03:31:21.715Z,69.82
2022-09-13T03:34:12.359Z,69.79
2022-09-13T03:36:41.450Z,69.63
2022-09-13T03:39:29.369Z,69.81
2022-09-13T03:42:05.753Z,70.15
2022-09-13T03:44:37.287Z,70.58
2022-09-13T03:47:07.710Z,70.72
2022-09-13T03:49:38.999Z,70.84
2022-09-13T03:52:07.387Z,70.88
2022-09-13T03:54:38.541Z,70.83
2022-09-13T03:57:17.327Z,70.76
2022-09-13T03:59:48.770Z,70.71
2022-09-13T04:02:17.210Z,70.18
2022-09-13T04:04:45.988Z,70.14
2022-09-13T04:07:21.519Z,70.31
2022-09-13T04:09:48.121Z,70.52
2022-09-13T04:12:17.249Z,70.62
2022-09-13T04:14:43.950Z,70.76
2022-09-13T04:17:12.052Z,70.72
2022-09-13T04:19:38.903Z,70.93
2022-09-13T04:22:05.385Z,70.83
2022-09-13T04:24:32.283Z,70.56
2022-09-13T04:26:59.411Z,70.41
2022-09-13T04:29:26.659Z,70.23
2022-09-13T04:31:55.332Z,70.30
2022-09-13T04:34:23.069Z,70.43
2022-09-13T04:36:52.393Z,70.44
2022-09-13T04:39:23.068Z,70.35
2022-09-13T04:41:51.826Z,70.86
2022-09-13T04:44:18.586Z,71.13
2022-09-13T04:46:48.698Z,70.89
2022-09-13T04:49:17.328Z,70.89
2022-09-13T04:51:43.901Z,70.61
2022-09-13T04:54:15.265Z,70.69
2022-09-13T04:56:43.660Z,70.48
2022-09-13T04:59:12.069Z,70.39
2022-09-13T05:01:38.825Z,70.44
2022-09-13T05:04:07.632Z,70.39
2022-09-13T05:06:35.310Z,70.64
2022-09-13T05:09:03.063Z,70.68
2022-09-13T05:11:30.083Z,70.64
2022-09-13T05:13:59.816Z,70.47
2022-09-13T05:16:32.552Z,70.38
2022-09-13T05:19:00.192Z,70.46
2022-09-13T05:21:30.898Z,70.84
2022-09-13T05:23:58.882Z,71.04
2022-09-13T05:26:31.779Z,70.64
2022-09-13T05:29:00.083Z,70.69
2022-09-13T05:31:37.505Z,70.42
2022-09-13T05:34:10.498Z,70.41
2022-09-13T05:36:37.502Z,70.40
2022-09-13T05:39:30.275Z,70.44
2022-09-13T05:41:52.109Z,70.73
2022-09-13T05:44:18.596Z,70.96
2022-09-13T05:46:48.660Z,70.55
2022-09-13T05:49:15.574Z,70.79
2022-09-13T05:51:42.270Z,71.08
2022-09-13T05:54:12.868Z,70.97
2022-09-13T05:56:39.777Z,71.05
2022-09-13T05:59:06.384Z,70.94
2022-09-13T06:01:32.957Z,70.52
2022-09-13T06:04:00.533Z,70.51
2022-09-13T06:06:27.106Z,70.48
2022-09-13T06:08:55.739Z,70.71
2022-09-13T06:11:23.789Z,70.97
2022-09-13T06:13:50.818Z,71.19
2022-09-13T06:16:17.722Z,71.05
2022-09-13T06:18:44.979Z,71.19
2022-09-13T06:21:19.232Z,71.10
2022-09-13T06:23:52.579Z,71.10
2022-09-13T06:26:26.685Z,71.08
2022-09-13T06:28:56.863Z,71.37
2022-09-13T06:31:26.301Z,71.21
2022-09-13T06:33:59.517Z,70.75
2022-09-13T06:36:26.695Z,70.77
2022-09-13T06:38:53.261Z,71.29
2022-09-13T06:41:23.483Z,71.31
2022-09-13T06:43:56.091Z,71.82
2022-09-13T06:46:25.229Z,71.97
2022-09-13T06:48:52.677Z,71.63
2022-09-13T06:51:23.579Z,71.33
2022-09-13T06:53:52.011Z,71.10
2022-09-13T06:56:28.193Z,70.90
2022-09-13T06:59:05.007Z,70.73
2022-09-13T07:01:37.268Z,70.81
2022-09-13T07:04:13.965Z,71.09
2022-09-13T07:06:47.923Z,71.12
2022-09-13T07:09:22.079Z,71.23
2022-09-13T07:11:52.851Z,70.71
2022-09-13T07:14:24.135Z,70.75
2022-09-13T07:16:51.895Z,71.11
2022-09-13T07:19:26.282Z,70.80
2022-09-13T07:21:54.365Z,70.62
2022-09-13T07:24:22.858Z,70.19
2022-09-13T07:26:50.683Z,70.14
2022-09-13T07:29:22.632Z,70.08
2022-09-13T07:31:54.311Z,70.05
2022-09-13T07:34:23.968Z,70.23
2022-09-13T07:36:51.041Z,70.14
2022-09-13T07:39:22.116Z,70.33
2022-09-13T07:41:49.695Z,70.13
2022-09-13T07:44:16.197Z,70.27
2022-09-13T07:46:45.347Z,70.25
2022-09-13T07:49:14.941Z,70.14
2022-09-13T07:51:43.906Z,70.04
2022-09-13T07:54:17.786Z,69.38
2022-09-13T07:56:45.393Z,69.27
2022-09-13T07:59:15.582Z,69.37
2022-09-13T08:01:48.567Z,69.19
2022-09-13T08:04:19.567Z,68.94
2022-09-13T08:06:46.856Z,68.87
2022-09-13T08:09:15.018Z,68.42
2022-09-13T08:11:45.693Z,68.07
2022-09-13T08:14:16.583Z,67.84
2022-09-13T08:16:43.230Z,67.93
2022-09-13T08:19:14.753Z,67.48
2022-09-13T08:21:42.424Z,67.01
2022-09-13T08:24:15.764Z,66.57
2022-09-13T08:26:42.295Z,66.43
2022-09-13T08:29:08.739Z,66.15
2022-09-13T08:31:35.430Z,66.25
2022-09-13T08:34:02.070Z,66.19
2022-09-13T08:36:30.222Z,66.35
2022-09-13T08:39:00.723Z,65.40
2022-09-13T08:41:44.882Z,64.06
2022-09-13T08:44:29.523Z,63.16
2022-09-13T08:47:04.403Z,63.77
2022-09-13T08:49:39.882Z,63.61
2022-09-13T08:52:29.420Z,62.45
2022-09-13T08:54:58.437Z,62.19
2022-09-13T08:57:45.243Z,61.10
2022-09-13T09:00:24.492Z,61.29
2022-09-13T09:03:10.004Z,60.39
2022-09-13T09:06:02.489Z,60.83
2022-09-13T09:08:48.317Z,59.66
2022-09-13T09:11:41.763Z,59.47
2022-09-13T09:14:29.783Z,59.03
2022-09-13T09:17:17.862Z,58.80
2022-09-13T09:19:55.375Z,58.66
2022-09-13T09:22:29.807Z,58.25
2022-09-13T09:24:58.137Z,57.97
2022-09-13T09:27:25.772Z,57.34
2022-09-13T09:29:58.121Z,57.15
2022-09-13T09:33:01.036Z,57.02
2022-09-13T09:35:46.110Z,57.23
2022-09-13T09:38:31.569Z,57.30
2022-09-13T09:41:13.885Z,56.89
2022-09-13T09:44:22.326Z,57.36
2022-09-13T09:47:18.382Z,56.86
2022-09-13T09:50:12.926Z,57.38
2022-09-13T09:53:08.648Z,57.30
2022-09-13T09:55:39.519Z,57.41
2022-09-13T09:58:08.672Z,57.68
2022-09-13T10:00:50.577Z,57.51
2022-09-13T10:03:21.079Z,57.29
2022-09-13T10:05:47.688Z,57.10
2022-09-13T10:08:30.949Z,56.35
2022-09-13T10:11:02.106Z,56.18
2022-09-13T10:13:32.024Z,56.04
2022-09-13T10:16:04.068Z,55.01
2022-09-13T10:18:45.424Z,55.03
2022-09-13T10:21:18.077Z,55.33
2022-09-13T10:23:47.322Z,55.42
2022-09-13T10:26:19.481Z,54.70
2022-09-13T10:28:52.006Z,53.45
2022-09-13T10:31:21.324Z,53.64
2022-09-13T10:34:02.081Z,53.26
2022-09-13T10:36:51.604Z,53.17
2022-09-13T10:39:23.028Z,53.36
2022-09-13T10:42:04.590Z,51.96
2022-09-13T10:44:43.716Z,51.74
2022-09-13T10:47:21.930Z,51.49
2022-09-13T10:49:57.690Z,51.50
2022-09-13T10:52:34.661Z,51.68
2022-09-13T10:55:29.298Z,51.27
2022-09-13T10:58:16.559Z,51.16
2022-09-13T11:01:01.742Z,51.29
2022-09-13T11:03:53.017Z,51.07
2022-09-13T11:06:58.476Z,51.07
2022-09-13T11:09:43.407Z,50.83
2022-09-13T11:12:53.118Z,50.43
2022-09-13T11:15:55.371Z,49.42
2022-09-13T11:19:06.319Z,50.62
2022-09-13T11:22:32.130Z,50.63
2022-09-13T11:25:28.910Z,50.55
2022-09-13T11:28:45.067Z,49.52
2022-09-13T11:31:30.270Z,49.23
2022-09-13T11:34:39.350Z,49.36
2022-09-13T11:38:18.069Z,48.96
2022-09-13T11:41:28.166Z,49.82
2022-09-13T11:44:44.351Z,47.88
2022-09-13T11:47:51.054Z,49.84
2022-09-13T11:50:42.103Z,49.38
2022-09-13T11:53:36.367Z,50.04
2022-09-13T11:56:20.675Z,49.90
2022-09-13T11:59:27.482Z,49.66
2022-09-13T12:02:10.409Z,50.09
2022-09-13T12:05:17.972Z,50.40
2022-09-13T12:08:09.923Z,49.00
2022-09-13T12:10:50.492Z,49.21
2022-09-13T12:13:25.068Z,49.71
2022-09-13T12:15:57.630Z,49.24
2022-09-13T12:18:37.643Z,49.06
2022-09-13T12:21:14.343Z,49.00
2022-09-13T12:23:49.539Z,48.61
2022-09-13T12:26:26.626Z,48.79
2022-09-13T12:29:29.485Z,47.98
2022-09-13T12:32:03.470Z,48.82
2022-09-13T12:35:00.910Z,48.78
2022-09-13T12:37:39.368Z,49.42
2022-09-13T12:40:40.546Z,48.88
2022-09-13T12:44:10.526Z,48.74
2022-09-13T12:46:52.366Z,49.71
2022-09-13T12:50:36.804Z,48.76
2022-09-13T12:53:09.795Z,48.86
2022-09-13T12:55:57.552Z,48.91
2022-09-13T12:59:22.507Z,47.58
2022-09-13T13:01:52.133Z,48.09
2022-09-13T13:04:33.567Z,46.29
2022-09-13T13:07:05.110Z,47.62
2022-09-13T13:09:34.205Z,47.58
2022-09-13T13:12:00.925Z,47.52
2022-09-13T13:14:39.370Z,47.81
2022-09-13T13:17:46.162Z,47.54
2022-09-13T13:20:52.922Z,47.65
2022-09-13T13:23:34.454Z,47.00
2022-09-13T13:26:23.314Z,47.02
2022-09-13T13:29:04.750Z,47.32
2022-09-13T13:31:31.157Z,47.16
2022-09-13T13:34:08.230Z,46.34
2022-09-13T13:36:43.610Z,46.19
2022-09-13T13:39:24.863Z,46.67
2022-09-13T13:42:26.655Z,46.58
2022-09-13T13:44:53.047Z,46.52
2022-09-13T13:47:19.407Z,46.85
2022-09-13T13:49:53.036Z,45.56
2022-09-13T13:52:22.422Z,45.66
2022-09-13T13:54:54.918Z,45.02
2022-09-13T13:57:52.236Z,45.49
2022-09-13T14:00:31.238Z,45.66
2022-09-13T14:03:16.552Z,45.96
2022-09-13T14:06:00.727Z,46.08
2022-09-13T14:12:14.972Z,46.16
2022-09-13T14:15:10.184Z,46.38
2022-09-13T14:18:17.470Z,46.90
2022-09-13T14:21:23.833Z,46.46
2022-09-13T14:23:50.922Z,46.57
2022-09-13T14:26:17.583Z,46.56
2022-09-13T14:28:44.194Z,45.83
2022-09-13T14:31:20.361Z,45.43
2022-09-13T14:33:47.154Z,45.34
2022-09-13T14:36:22.685Z,44.96
2022-09-13T14:38:58.988Z,45.08
2022-09-13T14:41:38.680Z,45.63
2022-09-13T14:44:29.261Z,45.09
2022-09-13T14:47:16.060Z,45.62
2022-09-13T14:49:59.779Z,45.21
2022-09-13T14:52:29.518Z,45.25
2022-09-13T14:55:09.753Z,44.84
2022-09-13T14:57:49.262Z,45.06
2022-09-13T15:00:22.698Z,45.33
2022-09-13T15:02:58.037Z,44.75
2022-09-13T15:05:30.799Z,45.09
2022-09-13T15:07:57.582Z,44.90
2022-09-13T15:10:33.207Z,44.54
2022-09-13T15:13:10.592Z,45.08
2022-09-13T15:15:38.498Z,45.27
2022-09-13T15:18:25.544Z,45.16
2022-09-13T15:21:03.720Z,44.27
2022-09-13T15:26:28.049Z,44.56
2022-09-13T15:28:59.116Z,45.00
2022-09-13T15:31:28.298Z,45.00
2022-09-13T15:34:20.236Z,44.80
2022-09-13T15:37:08.080Z,44.97
2022-09-13T15:39:51.505Z,44.46
2022-09-13T15:42:18.109Z,45.14
2022-09-13T15:44:44.644Z,45.30
2022-09-13T15:47:17.798Z,45.08
2022-09-13T15:49:50.997Z,45.16
2022-09-13T15:52:19.826Z,44.89
2022-09-13T15:54:50.886Z,44.74
2022-09-13T15:57:25.821Z,44.84
2022-09-13T15:59:54.307Z,45.13
2022-09-13T16:02:35.556Z,45.07
2022-09-13T16:05:02.073Z,45.43
2022-09-13T16:07:28.615Z,44.85
2022-09-13T16:09:55.100Z,44.66
2022-09-13T16:12:24.291Z,45.17
2022-09-13T16:14:50.719Z,44.91
2022-09-13T16:17:25.788Z,45.43
2022-09-13T16:19:54.189Z,45.51
2022-09-13T16:22:21.291Z,45.83
2022-09-13T16:24:48.417Z,46.12
2022-09-13T16:27:18.508Z,46.37
2022-09-13T16:29:45.986Z,46.51
2022-09-13T16:32:12.719Z,46.57
2022-09-13T16:34:39.472Z,46.75
2022-09-13T16:37:06.136Z,47.27
2022-09-13T16:39:32.649Z,47.50
2022-09-13T16:41:59.169Z,47.54
2022-09-13T16:44:25.643Z,47.32
2022-09-13T16:46:52.275Z,47.61
2022-09-13T16:49:18.766Z,48.07
2022-09-13T16:51:45.369Z,48.62
2022-09-13T16:54:11.807Z,49.19
2022-09-13T16:56:38.238Z,49.88
2022-09-13T16:59:04.738Z,49.91
2022-09-13T17:01:31.570Z,50.26
2022-09-13T17:03:58.658Z,50.87
2022-09-13T17:06:26.935Z,51.23
2022-09-13T17:09:01.484Z,51.81
2022-09-13T17:11:32.169Z,51.86
2022-09-13T17:13:59.832Z,52.20
2022-09-13T17:16:30.031Z,52.36
2022-09-13T17:18:59.727Z,52.66
2022-09-13T17:21:28.080Z,53.14
2022-09-13T17:23:55.528Z,53.11
2022-09-13T17:26:23.047Z,53.23
2022-09-13T17:28:49.863Z,53.50
2022-09-13T17:31:16.725Z,53.66
2022-09-13T17:33:43.246Z,54.14
2022-09-13T17:36:13.421Z,54.24
2022-09-13T17:38:41.999Z,54.94
2022-09-13T17:41:13.095Z,55.46
2022-09-13T17:43:42.726Z,56.20
2022-09-13T17:46:16.507Z,56.92
2022-09-13T17:48:43.942Z,57.53
2022-09-13T17:51:14.274Z,58.29
2022-09-13T17:53:46.018Z,58.82
2022-09-13T17:56:21.223Z,59.33
2022-09-13T17:58:48.475Z,59.61
2022-09-13T18:01:15.462Z,60.30
2022-09-13T18:03:42.238Z,60.69
2022-09-13T18:06:10.655Z,61.01
2022-09-13T18:08:38.987Z,61.38
2022-09-13T18:11:14.238Z,62.24
2022-09-13T18:13:44.041Z,62.48
2022-09-13T18:16:20.715Z,62.75
2022-09-13T18:18:50.024Z,62.93
2022-09-13T18:21:19.113Z,63.39
2022-09-13T18:23:48.326Z,63.44
2022-09-13T18:26:18.818Z,63.75
2022-09-13T18:28:46.587Z,64.03
2022-09-13T18:31:17.244Z,63.81
2022-09-13T18:33:45.399Z,64.26
2022-09-13T18:36:16.347Z,64.67
2022-09-13T18:38:46.373Z,64.25
2022-09-13T18:41:18.294Z,64.30
2022-09-13T18:43:49.701Z,64.19
2022-09-13T18:46:24.372Z,64.15
2022-09-13T18:48:57.230Z,64.37
2022-09-13T18:51:28.380Z,64.76
2022-09-13T18:53:55.795Z,64.56
2022-09-13T18:56:24.321Z,64.54
2022-09-13T18:58:52.882Z,64.70
2022-09-13T19:01:28.914Z,64.51
2022-09-13T19:04:00.471Z,64.81
2022-09-13T19:06:31.360Z,64.75
2022-09-13T19:08:59.683Z,64.75
2022-09-13T19:11:48.917Z,64.69
2022-09-13T19:14:19.391Z,64.80
2022-09-13T19:16:47.038Z,65.02
2022-09-13T19:19:13.697Z,65.09
2022-09-13T19:21:40.790Z,65.60
2022-09-13T19:24:16.166Z,65.91
2022-09-13T19:26:45.163Z,66.12
2022-09-13T19:29:15.808Z,67.65
2022-09-13T19:31:48.199Z,67.66
2022-09-13T19:34:17.382Z,67.99
2022-09-13T19:36:44.405Z,68.31
2022-09-13T19:39:11.745Z,68.63
2022-09-13T19:41:40.113Z,68.77
2022-09-13T19:44:07.592Z,69.04
2022-09-13T19:46:40.004Z,69.27
2022-09-13T19:49:08.550Z,69.13
2022-09-13T19:51:39.718Z,69.06
2022-09-13T19:54:09.569Z,68.72
2022-09-13T19:56:39.778Z,68.34
2022-09-13T19:59:09.460Z,68.69
2022-09-13T20:01:40.659Z,68.90
2022-09-13T20:04:11.410Z,69.31
2022-09-13T20:06:50.787Z,69.36
2022-09-13T20:09:20.259Z,69.05
2022-09-13T20:11:48.423Z,69.39
2022-09-13T20:14:18.864Z,69.20
2022-09-13T20:16:45.638Z,69.40
2022-09-13T20:22:08.354Z,70.87
2022-09-13T20:24:34.906Z,71.00
2022-09-13T20:27:02.459Z,70.75
2022-09-13T20:29:28.885Z,70.29
2022-09-13T20:31:55.463Z,70.29
2022-09-13T20:34:22.110Z,70.95
2022-09-13T20:36:48.540Z,71.27
2022-09-13T20:39:15.210Z,71.47
2022-09-13T20:41:43.188Z,71.07
2022-09-13T20:44:09.699Z,70.94
2022-09-13T20:46:37.550Z,71.09
2022-09-13T20:49:05.295Z,70.99
2022-09-13T20:51:34.650Z,71.53
2022-09-13T20:54:01.668Z,71.55
2022-09-13T20:56:30.216Z,71.85
2022-09-13T20:59:00.308Z,72.16
2022-09-13T21:01:29.887Z,72.39
2022-09-13T21:03:57.900Z,72.28
2022-09-13T21:06:28.453Z,71.84
2022-09-13T21:08:59.533Z,71.55
2022-09-13T21:11:34.957Z,71.32
2022-09-13T21:14:05.605Z,71.22
2022-09-13T21:16:36.347Z,71.37
2022-09-13T21:19:03.593Z,71.66
2022-09-13T21:21:34.424Z,72.07
2022-09-13T21:24:11.681Z,72.52
2022-09-13T21:26:41.974Z,72.66
2022-09-13T21:29:10.201Z,72.74
2022-09-13T21:31:37.717Z,72.96
2022-09-13T21:34:16.349Z,73.26
2022-09-13T21:36:45.116Z,72.89
2022-09-13T21:39:13.618Z,72.87
2022-09-13T21:41:40.778Z,73.05
2022-09-13T21:44:07.519Z,73.21
2022-09-13T21:46:38.080Z,72.78
2022-09-13T21:49:11.646Z,72.77
2022-09-13T21:51:47.091Z,73.14
2022-09-13T21:54:17.592Z,73.29
2022-09-13T21:56:52.812Z,73.00
2022-09-13T21:59:22.068Z,72.92
2022-09-13T22:01:51.632Z,72.71
2022-09-13T22:04:22.883Z,72.52
2022-09-13T22:06:53.303Z,72.59
2022-09-13T22:09:23.344Z,72.57
2022-09-13T22:11:49.856Z,73.08
2022-09-13T22:14:19.764Z,73.56
2022-09-13T22:16:46.687Z,73.44
2022-09-13T22:19:20.607Z,73.61
2022-09-13T22:21:53.269Z,73.93
2022-09-13T22:24:22.911Z,74.10
2022-09-13T22:26:52.272Z,74.30
2022-09-13T22:29:20.062Z,74.35
2022-09-13T22:31:49.798Z,74.46
2022-09-13T22:34:23.895Z,74.62
2022-09-13T22:36:51.048Z,74.93
2022-09-13T22:39:17.915Z,75.08
2022-09-13T22:41:45.178Z,75.19
2022-09-13T22:44:11.891Z,75.04
2022-09-13T22:46:42.855Z,74.74
2022-09-13T22:49:17.612Z,74.56
2022-09-13T22:51:45.836Z,74.35
2022-09-13T22:54:14.364Z,74.55
2022-09-13T22:56:41.728Z,74.62
2022-09-13T22:59:19.115Z,74.34
2022-09-13T23:01:46.587Z,73.92
2022-09-13T23:04:13.828Z,73.65
2022-09-13T23:06:43.802Z,73.64
2022-09-13T23:09:14.350Z,73.95
2022-09-13T23:11:41.114Z,73.91
2022-09-13T23:14:11.932Z,74.02
2022-09-13T23:16:44.974Z,74.10
2022-09-13T23:19:13.476Z,74.45
2022-09-13T23:21:41.475Z,74.36
2022-09-13T23:24:16.335Z,74.25
2022-09-13T23:26:44.563Z,74.48
2022-09-13T23:29:18.115Z,74.38
2022-09-13T23:31:46.965Z,74.10
2022-09-13T23:34:14.786Z,74.11
2022-09-13T23:36:43.975Z,74.19
2022-09-13T23:39:18.148Z,74.23
2022-09-13T23:41:47.251Z,73.95
2022-09-13T23:44:14.500Z,74.06
2022-09-13T23:46:41.555Z,74.04
2022-09-13T23:49:08.047Z,74.12
2022-09-13T23:51:34.573Z,74.60
2022-09-13T23:54:01.719Z,74.81
2022-09-13T23:56:31.612Z,74.91
2022-09-13T23:59:00.174Z,75.15
